Time;durP1;ratioP1;P1;durP2;ratioP2;P2;SDS_P1;SDS_P2;PMS_P1;PMS_P2;Temp;Humidity;BMP_temperature;BMP_pressure;BME280_temperature;BME280_humidity;BME280_pressure;Samples;Min_cycle;Max_cycle;Signal;HPM_P1;HPM_P2
2021/11/11 00:00:30;;;;;;;28.57;16.77;;;;;;;5.27;60.96;98135.15;1636670;85;25768;-84
2021/11/11 00:03:00;;;;;;;32.63;17.90;;;;;;;5.19;60.93;98146.67;1650688;86;25972;-84
2021/11/11 00:05:28;;;;;;;32.08;18.65;;;;;;;5.08;60.90;98143.73;1628262;87;25805;-84
2021/11/11 00:07:55;;;;;;;32.63;17.92;;;;;;;4.94;60.88;98150.20;1643420;87;25330;-84
2021/11/11 00:10:23;;;;;;;28.23;18.52;;;;;;;4.71;61.01;98149.36;1632653;87;26467;-84
2021/11/11 00:12:51;;;;;;;37.10;18.80;;;;;;;4.58;61.19;98150.79;1629332;87;25825;-84
2021/11/11 00:15:17;;;;;;;35.75;18.20;;;;;;;4.45;61.37;98151.19;1657913;84;28257;-83
2021/11/11 00:17:46;;;;;;;25.95;13.98;;;;;;;4.25;61.49;98156.34;1660296;84;26097;-85
2021/11/11 00:20:16;;;;;;;34.95;18.00;;;;;;;4.15;61.81;98156.92;1660455;84;25742;-84
2021/11/11 00:22:43;;;;;;;26.33;15.05;;;;;;;4.15;62.06;98155.58;1660429;84;25769;-84
2021/11/11 00:25:12;;;;;;;36.95;18.27;;;;;;;4.08;62.16;98153.19;1660260;85;25809;-83
2021/11/11 00:27:40;;;;;;;32.53;17.95;;;;;;;4.04;62.15;98162.49;1660049;84;28221;-84
2021/11/11 00:30:10;;;;;;;34.18;17.40;;;;;;;3.96;62.26;98164.59;1660299;84;25279;-84
2021/11/11 00:32:39;;;;;;;32.50;18.15;;;;;;;3.86;62.44;98155.32;1660019;84;25388;-84
2021/11/11 00:35:19;;;;;;;31.73;15.35;;;;;;;3.82;62.68;98152.59;1660259;85;25701;-83
2021/11/11 00:37:46;;;;;;;28.38;14.90;;;;;;;3.72;62.82;98154.50;1659855;85;25342;-83
2021/11/11 00:40:15;;;;;;;31.00;15.60;;;;;;;3.58;63.09;98157.17;1660184;84;27425;-83
2021/11/11 00:42:41;;;;;;;27.48;15.60;;;;;;;3.49;63.16;98153.23;1660376;85;25716;-84
2021/11/11 00:45:09;;;;;;;29.45;16.02;;;;;;;3.46;63.35;98145.02;1660404;84;26367;-86
2021/11/11 00:47:36;;;;;;;28.32;15.32;;;;;;;3.35;63.45;98146.55;1647556;85;26391;-84
2021/11/11 00:50:06;;;;;;;25.57;13.98;;;;;;;3.33;63.66;98151.20;1652802;84;25829;-85
2021/11/11 00:52:33;;;;;;;27.65;13.58;;;;;;;3.24;63.86;98152.93;1632009;86;27462;-84
2021/11/11 00:55:02;;;;;;;29.98;15.83;;;;;;;3.14;64.04;98149.44;1628445;86;25865;-83
2021/11/11 00:57:28;;;;;;;30.88;16.87;;;;;;;3.07;64.04;98147.02;1643059;86;25794;-85
2021/11/11 00:59:56;;;;;;;27.82;16.05;;;;;;;3.05;64.16;98151.66;1637525;86;25737;-84
2021/11/11 01:02:23;;;;;;;34.05;17.10;;;;;;;3.06;64.26;98148.00;1628339;86;25820;-84
2021/11/11 01:04:50;;;;;;;32.15;16.77;;;;;;;3.07;64.31;98143.52;1629139;86;27320;-85
2021/11/11 01:07:16;;;;;;;33.73;16.27;;;;;;;3.03;64.32;98150.95;1631190;86;25828;-84
2021/11/11 01:09:43;;;;;;;42.58;21.35;;;;;;;3.00;64.51;98140.60;1635919;86;25351;-84
2021/11/11 01:12:10;;;;;;;31.60;17.50;;;;;;;2.86;64.50;98139.73;1632288;87;26282;-83
2021/11/11 01:14:37;;;;;;;36.03;18.92;;;;;;;2.81;64.64;98133.98;1643651;87;25794;-84
2021/11/11 01:17:04;;;;;;;31.70;17.00;;;;;;;2.78;64.78;98131.59;1628059;87;28501;-83
2021/11/11 01:19:31;;;;;;;28.65;15.55;;;;;;;2.67;64.85;98137.10;1658331;84;25915;-83
2021/11/11 01:21:57;;;;;;;30.27;15.72;;;;;;;2.63;65.31;98139.23;1660217;84;25812;-84
2021/11/11 01:24:24;;;;;;;34.67;16.17;;;;;;;2.58;65.36;98124.64;1660176;84;26453;-84
2021/11/11 01:26:51;;;;;;;45.70;22.27;;;;;;;2.54;65.47;98118.27;1658914;86;25793;-84
2021/11/11 01:29:17;;;;;;;51.02;23.02;;;;;;;2.51;65.70;98125.23;1649778;85;28171;-84
2021/11/11 01:31:44;;;;;;;43.52;22.48;;;;;;;2.54;65.90;98126.75;1633382;87;25823;-84
2021/11/11 01:34:10;;;;;;;44.25;24.05;;;;;;;2.60;66.03;98125.34;1639738;86;25305;-83
2021/11/11 01:36:37;;;;;;;28.62;15.18;;;;;;;2.66;66.24;98119.42;1639677;86;25828;-83
2021/11/11 01:39:05;;;;;;;21.07;13.03;;;;;;;2.77;66.44;98125.95;1639707;86;25774;-84
2021/11/11 01:41:32;;;;;;;20.32;12.43;;;;;;;2.95;66.59;98121.52;1639731;86;27436;-85
2021/11/11 01:44:00;;;;;;;45.00;20.62;;;;;;;3.12;66.59;98122.58;1635767;86;25513;-85
2021/11/11 01:46:27;;;;;;;18.40;12.45;;;;;;;3.23;66.54;98109.89;1667479;85;25746;-84
2021/11/11 01:48:54;;;;;;;20.37;12.03;;;;;;;3.34;66.70;98121.34;1637774;86;25835;-84
2021/11/11 01:51:22;;;;;;;18.40;11.68;;;;;;;3.49;66.68;98121.20;1651028;86;25836;-85
2021/11/11 01:53:49;;;;;;;18.32;11.45;;;;;;;3.55;66.42;98123.25;1651012;86;27395;-85
2021/11/11 01:56:16;;;;;;;17.07;11.53;;;;;;;3.63;66.39;98123.33;1642088;86;25335;-85
2021/11/11 01:58:42;;;;;;;17.73;11.28;;;;;;;3.72;66.53;98130.47;1655833;84;25800;-85
2021/11/11 02:01:09;;;;;;;15.85;11.28;;;;;;;3.78;66.36;98128.52;1668412;84;25938;-85
2021/11/11 02:03:35;;;;;;;20.92;12.20;;;;;;;3.83;66.41;98123.56;1668219;84;25767;-85
2021/11/11 02:06:02;;;;;;;17.52;11.63;;;;;;;3.87;66.26;98126.75;1668178;85;28154;-85
2021/11/11 02:08:29;;;;;;;19.82;11.73;;;;;;;3.92;66.26;98114.64;1661728;84;26008;-85
2021/11/11 02:10:55;;;;;;;20.43;11.88;;;;;;;3.96;66.20;98121.36;1649459;84;25990;-85
2021/11/11 02:13:22;;;;;;;19.65;11.57;;;;;;;3.95;66.07;98111.67;1639739;86;25672;-85
2021/11/11 02:15:49;;;;;;;21.05;12.15;;;;;;;3.97;66.04;98108.35;1636258;86;25651;-85
2021/11/11 02:18:15;;;;;;;17.77;11.78;;;;;;;3.98;66.08;98107.33;1660829;86;27385;-85
2021/11/11 02:20:44;;;;;;;18.75;12.15;;;;;;;3.99;66.11;98109.02;1660690;86;25854;-85
2021/11/11 02:23:15;;;;;;;18.15;12.18;;;;;;;4.04;66.16;98105.05;1660478;85;26379;-85
2021/11/11 02:25:43;;;;;;;19.60;12.63;;;;;;;4.11;66.31;98102.09;1649636;86;25835;-85
2021/11/11 02:28:13;;;;;;;22.62;12.55;;;;;;;4.17;66.36;98103.67;1639740;86;25726;-84
2021/11/11 02:30:44;;;;;;;21.87;13.68;;;;;;;4.23;66.37;98100.38;1634481;87;27434;-85
2021/11/11 02:33:17;;;;;;;17.40;11.78;;;;;;;4.32;66.41;98102.14;1652315;86;26010;-85
2021/11/11 02:35:44;;;;;;;20.48;11.57;;;;;;;4.41;66.39;98096.34;1648250;85;25722;-85
2021/11/11 02:38:12;;;;;;;17.60;13.00;;;;;;;4.45;66.36;98092.38;1690489;83;26553;-85
2021/11/11 02:40:41;;;;;;;19.85;13.18;;;;;;;4.43;66.22;98093.02;1692138;84;25734;-85
2021/11/11 02:43:08;;;;;;;17.60;11.43;;;;;;;4.41;66.08;98088.33;1689748;83;27434;-85
2021/11/11 02:45:40;;;;;;;17.70;11.30;;;;;;;4.39;65.80;98085.46;1693951;84;25771;-85
2021/11/11 02:48:10;;;;;;;19.05;12.20;;;;;;;4.35;65.70;98075.56;1693118;83;25833;-85
2021/11/11 02:50:37;;;;;;;16.95;10.90;;;;;;;4.32;65.68;98071.89;1688910;83;25802;-85
2021/11/11 02:53:06;;;;;;;20.70;11.63;;;;;;;4.25;65.67;98071.66;1692679;83;25785;-86
2021/11/11 02:55:33;;;;;;;20.40;10.72;;;;;;;4.20;65.63;98075.31;1691235;83;26691;-84
2021/11/11 02:58:01;;;;;;;21.37;11.70;;;;;;;4.18;65.50;98065.77;1694238;83;25723;-85
2021/11/11 03:00:45;;;;;;;24.05;12.98;;;;;;;4.05;65.48;98072.00;1694304;83;25743;-85
2021/11/11 03:03:11;;;;;;;18.98;11.35;;;;;;;3.96;65.58;98067.09;1692768;83;25811;-85
2021/11/11 03:05:39;;;;;;;18.00;11.40;;;;;;;3.90;65.59;98064.53;1688666;84;25736;-85
2021/11/11 03:08:07;;;;;;;18.07;10.55;;;;;;;3.83;65.62;98063.48;1689960;83;27627;-85
2021/11/11 03:10:37;;;;;;;22.90;11.85;;;;;;;3.77;65.72;98055.22;1691665;83;26406;-85
2021/11/11 03:13:03;;;;;;;21.87;11.78;;;;;;;3.69;65.77;98055.16;1689858;84;25795;-85
2021/11/11 03:15:32;;;;;;;20.55;12.03;;;;;;;3.63;65.93;98048.58;1694365;83;26667;-85
2021/11/11 03:17:59;;;;;;;21.30;11.95;;;;;;;3.55;65.96;98053.36;1688069;83;25743;-85
2021/11/11 03:20:27;;;;;;;22.62;12.43;;;;;;;3.51;65.92;98055.97;1681756;84;27479;-85
2021/11/11 03:22:54;;;;;;;23.40;12.55;;;;;;;3.48;65.91;98055.45;1692929;84;25325;-84
2021/11/11 03:25:25;;;;;;;24.72;13.65;;;;;;;3.41;65.94;98052.53;1689568;83;25711;-84
2021/11/11 03:27:52;;;;;;;19.95;11.88;;;;;;;3.39;66.00;98053.67;1688659;84;25902;-84
2021/11/11 03:30:21;;;;;;;20.95;11.70;;;;;;;3.28;65.99;98052.55;1689176;83;25334;-84
2021/11/11 03:32:48;;;;;;;22.20;13.30;;;;;;;3.22;66.10;98057.52;1694120;83;28084;-84
2021/11/11 03:35:15;;;;;;;23.25;13.35;;;;;;;3.13;66.15;98057.58;1694117;83;25776;-85
2021/11/11 03:37:44;;;;;;;23.42;13.15;;;;;;;3.04;66.32;98051.28;1691746;84;25879;-84
2021/11/11 03:40:15;;;;;;;20.85;12.70;;;;;;;3.04;66.50;98043.28;1692815;83;25914;-85
2021/11/11 03:42:46;;;;;;;20.20;12.70;;;;;;;3.05;66.68;98040.13;1688150;84;25877;-84
2021/11/11 03:45:14;;;;;;;22.48;13.03;;;;;;;3.04;66.68;98041.11;1660834;85;27464;-84
2021/11/11 03:47:41;;;;;;;21.25;11.40;;;;;;;3.01;66.69;98036.09;1639466;87;25748;-84
2021/11/11 03:50:08;;;;;;;19.57;11.80;;;;;;;2.91;66.66;98040.12;1638946;86;25868;-84
2021/11/11 03:52:36;;;;;;;18.48;11.57;;;;;;;2.86;66.72;98035.25;1662360;84;25690;-84
2021/11/11 03:55:06;;;;;;;19.85;11.83;;;;;;;2.84;66.80;98035.05;1643941;84;25781;-84
2021/11/11 03:57:32;;;;;;;18.57;11.83;;;;;;;2.81;66.78;98032.66;1662914;84;27368;-84
2021/11/11 03:59:59;;;;;;;21.30;11.95;;;;;;;2.76;66.81;98045.61;1654726;86;25770;-84
2021/11/11 04:02:26;;;;;;;18.90;11.93;;;;;;;2.69;66.87;98045.83;1687621;83;25768;-84
2021/11/11 04:04:54;;;;;;;16.52;10.88;;;;;;;2.68;66.95;98041.48;1676164;83;26380;-84
2021/11/11 04:07:21;;;;;;;18.87;11.08;;;;;;;2.63;66.94;98037.95;1694360;83;25278;-84
2021/11/11 04:09:47;;;;;;;16.97;11.05;;;;;;;2.61;67.02;98028.41;1689602;83;27464;-84
2021/11/11 04:12:14;;;;;;;17.45;10.55;;;;;;;2.60;67.06;98033.39;1694282;84;25289;-84
2021/11/11 04:14:41;;;;;;;18.77;10.78;;;;;;;2.49;67.13;98036.59;1689767;83;25848;-84
2021/11/11 04:17:08;;;;;;;17.12;10.23;;;;;;;2.41;67.26;98031.66;1690195;83;25767;-84
2021/11/11 04:19:34;;;;;;;21.62;11.65;;;;;;;2.42;67.40;98034.14;1691383;84;25726;-84
2021/11/11 04:22:01;;;;;;;23.35;11.55;;;;;;;2.45;67.40;98029.02;1689551;84;27983;-84
2021/11/11 04:24:28;;;;;;;17.32;11.43;;;;;;;2.44;67.42;98025.52;1694284;83;25727;-84
2021/11/11 04:27:00;;;;;;;22.05;12.80;;;;;;;2.42;67.45;98018.64;1694359;83;25737;-84
2021/11/11 04:29:25;;;;;;;18.37;11.22;;;;;;;2.37;67.61;98016.44;1693086;82;27001;-84
2021/11/11 04:31:57;;;;;;;20.23;10.65;;;;;;;2.29;67.67;98019.48;1688439;84;26018;-84
2021/11/11 04:34:20;;;;;;;16.85;10.30;;;;;;;2.24;67.79;98020.40;1691827;83;27590;-84
2021/11/11 04:45:19;;;;;;;17.25;10.58;;;;;;;2.24;68.08;98005.75;1687575;84;25921;-84
2021/11/11 04:52:44;;;;;;;15.23;9.73;;;;;;;2.46;68.49;97992.06;1694218;83;25787;-84
2021/11/11 05:05:40;;;;;;;16.15;9.95;;;;;;;2.64;68.33;97998.31;1691887;83;25704;-83
2021/11/11 05:08:06;;;;;;;16.67;8.98;;;;;;;2.71;68.36;97994.55;1689706;84;25820;-84
2021/11/11 05:10:33;;;;;;;16.07;9.00;;;;;;;2.73;68.28;97995.25;1689875;84;25786;-84
2021/11/11 05:13:00;;;;;;;14.73;8.65;;;;;;;2.78;68.21;97998.29;1693385;83;27417;-84
2021/11/11 05:15:27;;;;;;;14.95;8.88;;;;;;;2.80;68.15;98010.49;1687901;84;26366;-84
2021/11/11 05:17:54;;;;;;;14.28;9.13;;;;;;;2.80;68.13;98012.32;1691712;83;26379;-84
2021/11/11 05:20:22;;;;;;;12.43;8.85;;;;;;;2.76;68.16;98014.95;1689955;84;25686;-85
2021/11/11 05:22:49;;;;;;;14.03;8.95;;;;;;;2.75;68.21;98017.27;1688915;84;25743;-84
2021/11/11 05:25:16;;;;;;;13.30;8.30;;;;;;;2.79;68.21;98015.97;1690250;83;27413;-84
2021/11/11 05:27:44;;;;;;;13.72;8.30;;;;;;;2.75;68.16;98018.61;1691203;83;25727;-84
2021/11/11 05:30:14;;;;;;;13.75;8.33;;;;;;;2.71;68.12;98013.21;1693133;84;25719;-84
2021/11/11 05:32:40;;;;;;;18.12;10.03;;;;;;;2.68;68.11;98008.17;1701230;83;25878;-84
2021/11/11 05:35:10;;;;;;;13.13;8.78;;;;;;;2.66;68.09;98006.98;1694722;83;25758;-85
2021/11/11 05:37:37;;;;;;;16.48;10.80;;;;;;;2.65;68.05;98008.48;1704980;83;27466;-85
2021/11/11 05:40:05;;;;;;;15.45;10.70;;;;;;;2.63;68.10;98008.62;1719897;82;25727;-84
2021/11/11 05:42:32;;;;;;;16.97;10.95;;;;;;;2.63;68.11;98011.78;1719912;82;25802;-84
2021/11/11 05:44:58;;;;;;;19.07;10.75;;;;;;;2.59;68.11;98007.23;1720028;83;25943;-85
2021/11/11 05:47:26;;;;;;;55.23;43.10;;;;;;;2.54;68.19;98004.99;1720061;82;25730;-85
2021/11/11 05:49:52;;;;;;;68.12;53.08;;;;;;;2.53;68.24;98010.01;1720036;82;28014;-85
2021/11/11 05:52:19;;;;;;;58.00;45.25;;;;;;;2.54;68.28;98008.99;1719967;82;25787;-84
2021/11/11 05:54:45;;;;;;;33.98;28.52;;;;;;;2.56;68.32;98005.34;1706556;83;25758;-83
2021/11/11 05:57:12;;;;;;;24.65;15.98;;;;;;;2.52;68.25;98005.66;1711975;83;25770;-84
2021/11/11 05:59:43;;;;;;;19.62;12.98;;;;;;;2.48;68.27;98007.42;1720085;82;25767;-84
2021/11/11 06:02:11;;;;;;;20.80;12.88;;;;;;;2.40;68.29;98002.83;1719732;82;28197;-84
2021/11/11 06:04:39;;;;;;;17.32;10.70;;;;;;;2.38;68.38;98007.46;1719910;82;26757;-84
2021/11/11 06:07:06;;;;;;;17.62;11.55;;;;;;;2.39;68.43;98006.97;1720096;83;25807;-84
2021/11/11 06:09:33;;;;;;;20.32;10.75;;;;;;;2.36;68.48;98012.09;1719764;83;26095;-85
2021/11/11 06:12:00;;;;;;;18.27;11.20;;;;;;;2.33;68.55;98008.87;1720002;82;25739;-84
2021/11/11 06:14:27;;;;;;;17.92;11.53;;;;;;;2.35;68.63;98002.41;1719932;82;27881;-84
2021/11/11 06:16:54;;;;;;;20.20;11.30;;;;;;;2.33;68.70;98001.72;1719814;82;25699;-84
2021/11/11 06:19:21;;;;;;;20.45;11.38;;;;;;;2.32;68.81;98005.36;1700995;83;25734;-84
2021/11/11 06:21:48;;;;;;;19.05;11.43;;;;;;;2.34;68.90;98000.73;1698535;82;26283;-83
2021/11/11 06:24:15;;;;;;;19.05;10.40;;;;;;;2.36;68.96;98009.42;1720072;82;25750;-84
2021/11/11 06:26:44;;;;;;;19.70;11.30;;;;;;;2.43;69.01;98006.52;1719956;82;28085;-84
2021/11/11 06:29:11;;;;;;;15.45;9.85;;;;;;;2.45;68.98;98008.55;1719680;82;25683;-84
2021/11/11 06:31:37;;;;;;;15.75;9.28;;;;;;;2.48;69.06;98010.92;1720041;82;25754;-84
2021/11/11 06:34:04;;;;;;;16.15;10.20;;;;;;;2.51;69.04;98007.98;1698651;83;25798;-84
2021/11/11 06:36:31;;;;;;;20.65;10.80;;;;;;;2.57;69.11;98004.36;1694490;83;25751;-83
2021/11/11 06:38:58;;;;;;;15.30;9.85;;;;;;;2.66;69.11;98012.80;1694429;83;28182;-84
2021/11/11 06:41:25;;;;;;;17.15;10.90;;;;;;;2.72;69.11;98004.23;1694382;83;25935;-84
2021/11/11 06:43:54;;;;;;;17.62;11.53;;;;;;;2.79;69.10;98002.64;1694397;84;25994;-84
2021/11/11 06:46:20;;;;;;;20.27;13.25;;;;;;;2.84;69.14;98001.71;1694334;84;26468;-84
2021/11/11 06:48:47;;;;;;;19.52;12.55;;;;;;;2.89;69.12;98003.45;1693997;83;25756;-84
2021/11/11 06:51:13;;;;;;;21.33;13.18;;;;;;;2.93;69.13;98000.81;1694458;83;27010;-84
2021/11/11 06:53:40;;;;;;;44.95;24.63;;;;;;;2.98;69.23;97991.88;1694406;84;25847;-84
2021/11/11 06:56:06;;;;;;;73.40;37.90;;;;;;;3.04;69.30;97983.77;1694369;84;25855;-84
2021/11/11 06:58:33;;;;;;;75.90;40.43;;;;;;;3.08;69.38;97984.66;1694294;83;25804;-84
2021/11/11 07:01:02;;;;;;;81.80;40.63;;;;;;;3.17;69.43;97989.08;1694413;84;25796;-83
2021/11/11 07:03:29;;;;;;;45.00;23.20;;;;;;;3.27;69.36;97983.67;1694216;83;28766;-83
2021/11/11 07:05:56;;;;;;;21.95;14.35;;;;;;;3.37;69.27;97981.80;1689625;84;25907;-83
2021/11/11 07:08:22;;;;;;;32.88;17.87;;;;;;;3.45;69.11;97978.35;1694455;83;26545;-85
2021/11/11 07:10:51;;;;;;;51.23;26.80;;;;;;;3.55;69.04;97976.44;1689491;83;26521;-84
2021/11/11 07:13:19;;;;;;;36.38;19.20;;;;;;;3.64;69.10;97980.84;1694411;83;25807;-84
2021/11/11 07:15:47;;;;;;;28.77;17.40;;;;;;;3.74;68.88;97968.27;1694291;83;27378;-85
2021/11/11 07:18:15;;;;;;;41.28;21.07;;;;;;;3.82;68.77;97968.33;1694222;83;26071;-83
2021/11/11 07:20:44;;;;;;;31.35;17.00;;;;;;;3.92;68.77;97971.73;1693997;83;26430;-84
2021/11/11 07:23:17;;;;;;;28.10;16.12;;;;;;;4.04;68.72;97971.48;1675129;84;25826;-84
2021/11/11 07:25:44;;;;;;;33.58;18.65;;;;;;;4.14;68.74;97962.86;1694447;83;25800;-85
2021/11/11 07:28:12;;;;;;;41.53;20.70;;;;;;;4.24;68.68;97966.25;1694311;83;27442;-85
2021/11/11 07:30:38;;;;;;;38.83;20.75;;;;;;;4.35;68.63;97968.16;1694261;83;25785;-85
2021/11/11 07:33:05;;;;;;;36.33;18.30;;;;;;;4.47;68.57;97968.72;1694307;83;25776;-85
2021/11/11 07:35:32;;;;;;;32.23;18.07;;;;;;;4.61;68.57;97965.45;1694280;83;26438;-84
2021/11/11 07:37:59;;;;;;;25.12;15.60;;;;;;;4.74;68.41;97949.45;1694373;83;25799;-85
2021/11/11 07:40:26;;;;;;;25.92;14.78;;;;;;;4.89;68.26;97948.69;1694497;83;27444;-85
2021/11/11 07:42:54;;;;;;;26.73;15.23;;;;;;;5.02;68.08;97942.87;1694290;83;25735;-85
2021/11/11 07:45:24;;;;;;;26.35;14.13;;;;;;;5.14;68.09;97944.23;1694334;83;25762;-85
2021/11/11 07:47:49;;;;;;;21.48;12.88;;;;;;;5.27;67.80;97951.30;1694760;82;25719;-84
2021/11/11 07:50:15;;;;;;;21.68;12.30;;;;;;;5.39;67.70;97936.59;1694295;83;25713;-85
2021/11/11 07:52:42;;;;;;;19.12;11.90;;;;;;;5.55;67.44;97930.41;1682823;84;27318;-85
2021/11/11 07:55:09;;;;;;;21.35;13.08;;;;;;;5.71;67.30;97933.07;1686410;84;25782;-85
2021/11/11 07:57:36;;;;;;;21.90;13.40;;;;;;;5.85;67.01;97930.22;1694455;84;26034;-85
2021/11/11 08:00:07;;;;;;;21.48;12.03;;;;;;;5.92;66.82;97925.04;1694359;84;25801;-85
2021/11/11 08:02:33;;;;;;;21.42;11.85;;;;;;;6.00;66.71;97935.27;1694272;83;26229;-85
2021/11/11 08:05:00;;;;;;;16.70;11.15;;;;;;;6.05;66.43;97940.94;1694105;84;27468;-85
2021/11/11 08:07:27;;;;;;;16.52;11.00;;;;;;;6.07;66.17;97935.41;1693194;84;25897;-84
2021/11/11 08:09:54;;;;;;;15.95;9.95;;;;;;;6.10;65.99;97929.72;1694329;84;25803;-85
2021/11/11 08:12:22;;;;;;;19.87;11.22;;;;;;;6.19;65.87;97926.00;1694316;84;25797;-85
2021/11/11 08:14:49;;;;;;;18.48;10.98;;;;;;;6.26;65.74;97926.17;1694310;84;25869;-86
2021/11/11 08:17:17;;;;;;;15.78;10.23;;;;;;;6.43;65.75;97922.41;1694251;83;27366;-85
2021/11/11 08:19:43;;;;;;;14.87;9.33;;;;;;;6.63;65.49;97917.50;1694273;83;25775;-85
2021/11/11 08:22:11;;;;;;;17.40;9.23;;;;;;;6.93;65.45;97918.52;1694350;83;25816;-85
2021/11/11 08:24:43;;;;;;;13.93;9.23;;;;;;;7.23;65.15;97916.34;1694308;83;26453;-86
2021/11/11 08:27:14;;;;;;;12.85;8.58;;;;;;;7.54;64.90;97910.90;1694654;83;25270;-86
2021/11/11 08:29:42;;;;;;;13.18;9.28;;;;;;;7.83;64.62;97910.16;1691864;84;27388;-86
2021/11/11 08:32:11;;;;;;;15.85;9.20;;;;;;;8.16;64.12;97908.83;1692109;84;25747;-86
2021/11/11 08:34:38;;;;;;;17.23;9.63;;;;;;;8.48;63.75;97917.07;1694052;84;25305;-86
2021/11/11 08:37:06;;;;;;;12.53;8.38;;;;;;;8.81;63.25;97917.53;1694390;84;25775;-86
2021/11/11 08:39:33;;;;;;;13.03;8.88;;;;;;;9.08;62.99;97912.45;1694350;83;25680;-86
2021/11/11 08:42:00;;;;;;;13.00;8.60;;;;;;;9.33;62.31;97906.52;1694463;84;27389;-86
2021/11/11 08:44:27;;;;;;;12.85;8.48;;;;;;;9.65;61.69;97899.81;1694285;83;25704;-86
2021/11/11 08:46:54;;;;;;;11.18;8.08;;;;;;;10.01;61.37;97903.74;1694438;83;25873;-85
2021/11/11 08:49:21;;;;;;;12.73;8.33;;;;;;;10.24;60.96;97900.83;1694442;84;26348;-86
2021/11/11 08:51:49;;;;;;;12.53;8.05;;;;;;;10.44;59.99;97902.30;1694423;84;25714;-86
2021/11/11 08:54:18;;;;;;;10.88;7.58;;;;;;;10.63;59.52;97896.67;1694477;84;27628;-87
2021/11/11 08:56:48;;;;;;;11.60;7.33;;;;;;;10.86;59.02;97884.25;1694471;83;25804;-87
2021/11/11 08:59:19;;;;;;;10.03;7.75;;;;;;;11.11;58.51;97890.23;1674853;84;25432;-87
2021/11/11 09:01:48;;;;;;;12.37;7.83;;;;;;;11.34;57.86;97885.02;1694339;84;26520;-86
2021/11/11 09:04:16;;;;;;;13.62;8.93;;;;;;;11.63;57.52;97881.11;1694505;84;25774;-87
2021/11/11 09:06:43;;;;;;;13.78;9.40;;;;;;;11.89;57.35;97887.41;1694357;84;27467;-87
2021/11/11 09:09:14;;;;;;;11.15;8.25;;;;;;;12.11;56.43;97879.06;1694264;84;25768;-87
2021/11/11 09:11:42;;;;;;;10.50;7.55;;;;;;;12.38;56.31;97880.70;1694428;84;25775;-87
2021/11/11 09:14:10;;;;;;;12.33;8.95;;;;;;;12.61;55.96;97870.23;1694478;84;25743;-88
2021/11/11 09:16:36;;;;;;;14.05;9.63;;;;;;;12.82;55.60;97870.98;1693783;84;25743;-88
2021/11/11 09:19:07;;;;;;;14.65;9.43;;;;;;;13.05;54.95;97878.59;1693929;84;28003;-86
2021/11/11 09:21:35;;;;;;;14.20;8.98;;;;;;;13.23;54.19;97857.91;1689891;83;25253;-87
2021/11/11 09:24:02;;;;;;;11.40;7.72;;;;;;;13.40;53.65;97869.61;1691877;83;25675;-87
2021/11/11 09:26:28;;;;;;;11.20;8.03;;;;;;;13.48;53.19;97859.84;1695022;83;26652;-87
2021/11/11 09:28:55;;;;;;;10.13;8.08;;;;;;;13.68;52.85;97860.53;1694414;83;25733;-87
2021/11/11 09:31:24;;;;;;;9.55;7.33;;;;;;;13.87;52.43;97863.63;1694449;83;27388;-86
2021/11/11 09:33:52;;;;;;;10.28;7.25;;;;;;;14.13;52.35;97860.39;1702276;82;25860;-86
2021/11/11 09:36:19;;;;;;;10.18;7.20;;;;;;;14.25;51.57;97855.89;1719827;82;25781;-87
2021/11/11 09:38:48;;;;;;;11.28;6.95;;;;;;;14.28;51.37;97849.98;1719955;82;25766;-87
2021/11/11 09:41:18;;;;;;;8.73;6.97;;;;;;;14.34;50.72;97851.83;1720106;83;25722;-87
2021/11/11 09:43:46;;;;;;;10.05;7.05;;;;;;;14.44;50.47;97845.38;1700215;82;27400;-87
2021/11/11 09:46:16;;;;;;;11.80;7.70;;;;;;;14.55;50.10;97842.43;1706679;82;25722;-87
2021/11/11 09:48:44;;;;;;;8.90;6.53;;;;;;;14.82;49.83;97844.32;1720102;83;26239;-86
2021/11/11 09:51:17;;;;;;;8.30;6.78;;;;;;;15.08;49.27;97834.48;1720037;82;25725;-87
2021/11/11 09:53:53;;;;;;;8.68;6.70;;;;;;;15.32;49.15;97844.39;1720091;82;26002;-87
2021/11/11 09:58:57;;;;;;;9.23;7.17;;;;;;;15.63;48.06;97830.25;1719906;83;25916;-87
2021/11/11 10:01:25;;;;;;;7.83;6.42;;;;;;;15.83;47.76;97832.95;1720127;83;26242;-87
2021/11/11 10:03:53;;;;;;;8.08;5.90;;;;;;;16.03;47.11;97816.30;1720101;83;25690;-88
2021/11/11 10:06:25;;;;;;;9.63;6.95;;;;;;;16.12;46.64;97812.14;1719890;83;25281;-88
2021/11/11 10:08:59;;;;;;;8.53;6.65;;;;;;;16.27;46.73;97809.48;1720183;83;27396;-87
2021/11/11 10:11:36;;;;;;;9.55;6.37;;;;;;;16.37;46.51;97806.45;1720028;83;25777;-87
2021/11/11 10:14:10;;;;;;;8.33;7.08;;;;;;;16.62;46.29;97805.34;1720059;83;26330;-88
2021/11/11 10:16:44;;;;;;;6.95;6.25;;;;;;;16.72;45.18;97792.79;1720020;83;25811;-87
2021/11/11 10:19:11;;;;;;;9.35;6.60;;;;;;;16.92;44.65;97788.27;1720136;83;25760;-88
2021/11/11 10:21:50;;;;;;;10.25;6.78;;;;;;;17.10;44.77;97785.91;1711784;83;27452;-87
2021/11/11 10:24:23;;;;;;;8.38;6.58;;;;;;;17.28;45.11;97782.96;1708885;83;25793;-89
2021/11/11 10:27:07;;;;;;;8.33;7.05;;;;;;;17.46;44.36;97778.67;1719927;82;25811;-88
2021/11/11 10:29:47;;;;;;;8.53;6.45;;;;;;;17.66;44.25;97777.38;1719985;82;26345;-87
2021/11/11 10:32:22;;;;;;;11.83;6.50;;;;;;;17.79;43.63;97770.23;1720106;82;25715;-88
2021/11/11 10:34:54;;;;;;;13.83;9.03;;;;;;;17.84;43.27;97764.86;1719741;82;28150;-88
2021/11/11 10:37:25;;;;;;;10.82;6.95;;;;;;;18.02;43.23;97754.20;1720120;82;25695;-87
2021/11/11 10:39:56;;;;;;;8.43;6.65;;;;;;;18.23;42.78;97751.50;1697492;83;25736;-87
2021/11/11 10:42:26;;;;;;;9.80;6.95;;;;;;;18.41;41.97;97738.64;1711481;83;25721;-88
2021/11/11 10:44:55;;;;;;;9.05;6.70;;;;;;;18.35;41.37;97746.75;1720016;83;25908;-86
2021/11/11 10:47:27;;;;;;;8.93;7.40;;;;;;;18.40;40.56;97741.08;1720065;82;27447;-88
2021/11/11 10:49:54;;;;;;;9.90;7.35;;;;;;;18.46;41.24;97736.81;1720087;82;25746;-89
2021/11/11 10:52:30;;;;;;;11.05;7.17;;;;;;;18.54;41.02;97732.80;1720139;82;25773;-89
2021/11/11 10:55:19;;;;;;;7.67;6.85;;;;;;;18.72;41.17;97720.19;1719605;82;25762;-88
2021/11/11 10:58:08;;;;;;;9.30;7.15;;;;;;;19.01;40.58;97729.83;1720180;83;25819;-89
2021/11/11 11:01:04;;;;;;;8.60;7.45;;;;;;;19.17;40.23;97723.16;1719916;83;28269;-89
2021/11/11 11:03:42;;;;;;;7.85;6.85;;;;;;;19.26;40.20;97722.95;1719942;83;25878;-89
2021/11/11 11:06:27;;;;;;;7.87;6.65;;;;;;;19.41;40.06;97719.00;1719282;83;25743;-89
2021/11/11 11:08:58;;;;;;;10.10;7.70;;;;;;;19.40;38.53;97724.19;1719685;83;26345;-89
2021/11/11 11:11:33;;;;;;;10.45;8.13;;;;;;;19.25;39.16;97717.20;1720207;83;25751;-90
2021/11/11 11:14:22;;;;;;;10.35;8.15;;;;;;;19.31;39.13;97723.84;1719888;83;27389;-89
2021/11/11 11:16:48;;;;;;;10.78;7.75;;;;;;;19.44;39.05;97714.38;1719732;83;25762;-90
2021/11/11 11:19:19;;;;;;;9.90;8.18;;;;;;;19.55;38.80;97716.16;1719985;83;25700;-89
2021/11/11 11:21:50;;;;;;;11.03;8.08;;;;;;;19.61;38.76;97712.35;1720084;83;26264;-89
2021/11/11 11:24:27;;;;;;;9.15;7.40;;;;;;;19.53;38.46;97710.11;1720045;83;25687;-89
2021/11/11 11:27:00;;;;;;;10.05;8.05;;;;;;;19.61;38.26;97708.25;1720008;83;27373;-90
2021/11/11 11:29:45;;;;;;;14.98;9.25;;;;;;;19.59;38.21;97700.00;1719124;83;25777;-89
2021/11/11 11:32:22;;;;;;;10.38;7.40;;;;;;;19.44;38.15;97706.97;1718350;83;25488;-91
2021/11/11 11:34:46;;;;;;;9.58;7.60;;;;;;;19.45;38.00;97705.06;1678897;85;54574;-89
2021/11/11 11:37:18;;;;;;;7.50;6.50;;;;;;;19.34;37.67;97711.53;1658016;86;25821;-89
2021/11/11 11:39:49;;;;;;;7.53;6.73;;;;;;;19.18;37.54;97707.02;1658828;86;28347;-91
2021/11/11 11:42:30;;;;;;;9.63;6.60;;;;;;;19.26;37.47;97701.06;1658468;86;25842;-91
2021/11/11 11:45:03;;;;;;;8.93;7.12;;;;;;;19.43;37.22;97701.78;1658349;85;25781;-91
2021/11/11 11:47:36;;;;;;;;;;;;;;;19.49;37.35;97699.38;1661105;86;25820;-90
2021/11/11 11:50:07;;;;;;;9.35;7.15;;;;;;;19.57;36.62;97702.17;1658511;86;25731;-91
2021/11/11 11:52:36;;;;;;;8.95;6.95;;;;;;;19.54;37.40;97695.33;1658647;86;27449;-90
2021/11/11 11:55:22;;;;;;;11.28;7.28;;;;;;;19.61;37.23;97695.09;1658579;85;25932;-91
2021/11/11 12:03:31;;;;;;;9.18;7.37;;;;;;;19.74;37.03;97692.73;1644284;86;25830;-89
2021/11/11 12:06:20;;;;;;;10.35;7.60;;;;;;;19.68;36.81;97692.98;1656246;85;28041;-90